Detall de PIREP

Printer-friendly versionPDF version

[2014/12/13 08:40:00]
Flight IATA:CT3317
Pilot Number:012
Company ICAO:CAT
Aircraft Type:MD11/E
PAX:0
Aircraft Registration:CARGO
Departing Airport: OSDI
Destination Airport: LEZG
Alternate Airport:LEBL
Online: VATSIM
Route:LEBOR/M082F340 UR655 LCA UR19 EVENO UM601 RDS UL995 KEA UL52 KOR UN604 RUTOM UM601 NERAR/N0463F360 UM601 QUENN UQ123 LULIX UP167 GINOX UM732 NESUL UN851 ATGUS UM601 GRAUS
Flight Level:F360
No Slew and time accel
No pause
Crash detect
Detect pilot in Cockpit between each 30 and 45 minutes
08:40 Zero fuel Weight: 322628 Lbs, Fuel Weight: 84561 Lbs
08:40 VATSIM:OSDI 130800Z 00000KT 0800 R23/0800 FG SCT030 11/10 Q1019
08:40 VATSIM:LEZG 130800Z 10005KT 7000 NSC 04/03 Q1014
08:40 Parking Brakes off
08:45 Take-off
08:45 Take off Weight: 406180 Lbs
08:45 Wind: 000º @ 000 Knots Heading: 229º
08:45 POS N33º 23´ 47´´ E036º 30´ 42´´
08:45 Gear Up: 193 Knots
08:45 Flaps:3 at 193 Knots
08:46 Flaps:2 at 216 Knots
08:46 Flaps:3 at 218 Knots
08:46 Flaps:2 at 220 Knots
08:46 Flaps:1 at 221 Knots
08:46 Flaps:0 at 230 Knots
09:00 Wind:232º@062 Knots Heading: 268º Ground Speed: 432 Knots Altitude 34137 ft
09:15 Wind:244º@036 Knots Heading: 285º Ground Speed: 451 Knots Altitude 34051 ft
09:30 Wind:294º@028 Knots Heading: 287º Ground Speed: 449 Knots Altitude 34055 ft
09:45 Wind:004º@054 Knots Heading: 294º Ground Speed: 463 Knots Altitude 34107 ft
10:00 Wind:359º@037 Knots Heading: 297º Ground Speed: 463 Knots Altitude 34150 ft
10:15 Wind:321º@015 Knots Heading: 289º Ground Speed: 463 Knots Altitude 34274 ft
10:30 Wind:305º@025 Knots Heading: 282º Ground Speed: 455 Knots Altitude 34324 ft
10:45 Wind:295º@027 Knots Heading: 282º Ground Speed: 453 Knots Altitude 34317 ft
11:00 Wind:282º@019 Knots Heading: 287º Ground Speed: 458 Knots Altitude 34320 ft
11:15 Wind:279º@015 Knots Heading: 277º Ground Speed: 462 Knots Altitude 34340 ft
11:22 TOC
11:22 Fuel Weight: 40963 Lb
11:30 Wind:262º@022 Knots Heading: 285º Ground Speed: 455 Knots Altitude 37316 ft
11:45 Wind:247º@029 Knots Heading: 282º Ground Speed: 452 Knots Altitude 37267 ft
12:00 Wind:227º@037 Knots Heading: 297º Ground Speed: 465 Knots Altitude 37214 ft
12:15 Wind:226º@040 Knots Heading: 268º Ground Speed: 445 Knots Altitude 37155 ft
12:30 Wind:230º@041 Knots Heading: 273º Ground Speed: 442 Knots Altitude 37040 ft
12:43 TOD
12:43 Fuel Weight: 23360 Lb
12:45 Wind:237º@023 Knots Heading: 294º Ground Speed: 453 Knots Altitude 32687 ft
13:00 Wind:214º@018 Knots Heading: 218º Ground Speed: 261 Knots Altitude 8083 ft
13:00 Flaps:1 at 255 Knots
13:03 Flaps:2 at 230 Knots
13:03 Flaps:3 at 229 Knots
13:05 Flaps:4 at 200 Knots
13:05 Flaps:3 at 200 Knots
13:05 Flaps:4 at 200 Knots
13:05 Flaps:5 at 200 Knots
13:05 Flaps:6 at 199 Knots
13:05 Gear Down: 199 Knots
13:06 Flaps:7 at 202 Knots
13:06 Flaps:6 at 200 Knots
13:06 Flaps:7 at 191 Knots
13:10 TouchDown:Rate -209 ft/min Speed: 156 Knots
13:10 VATSIM:LEZG 131230Z 11007KT 8000 FEW040 08/05 Q1013
13:10 Land
13:10 Wind:110º@007 Knots
13:10 Heading: 300º
13:10 Flight Duration: 04:25
13:10 Landing Weight: 341864 Lbs
13:10 POS N41º 39´ 49´´ W001º 01´ 37´´
13:11 Parking brakes on
13:11 Block to Block Duration: 04:31
13:11 Final Fuel: 19120 Lbls
13:11 Spent Fuel: 65441 Lbls
13:11 Flight Length: 1932 NM
13:11 TOD Land Length: 137 NM

Exportar CSV

Powered by Drupal - Modified by Danger4k